sensor_id;sensor_type;location;lat;lon;timestamp;pressure;altitude;pressure_sealevel;temperature;humidity
38530;BME280;24301;54.332;48.386;2023-05-08T00:02:24;100046.94;;;2.50;47.60
38530;BME280;24301;54.332;48.386;2023-05-08T00:04:50;100053.81;;;2.48;47.16
38530;BME280;24301;54.332;48.386;2023-05-08T00:07:16;100054.66;;;2.49;47.34
38530;BME280;24301;54.332;48.386;2023-05-08T00:09:42;100045.91;;;2.45;47.29
38530;BME280;24301;54.332;48.386;2023-05-08T00:12:08;100053.53;;;2.40;47.74
38530;BME280;24301;54.332;48.386;2023-05-08T00:14:33;100054.28;;;2.38;48.30
38530;BME280;24301;54.332;48.386;2023-05-08T00:16:59;100056.84;;;2.36;48.23
38530;BME280;24301;54.332;48.386;2023-05-08T00:19:26;100055.19;;;2.38;48.07
38530;BME280;24301;54.332;48.386;2023-05-08T00:21:52;100050.75;;;2.36;47.75
38530;BME280;24301;54.332;48.386;2023-05-08T00:24:18;100054.19;;;2.35;48.04
38530;BME280;24301;54.332;48.386;2023-05-08T00:26:44;100050.63;;;2.31;48.23
38530;BME280;24301;54.332;48.386;2023-05-08T00:29:10;100049.72;;;2.30;48.60
38530;BME280;24301;54.332;48.386;2023-05-08T00:31:36;100054.91;;;2.30;48.64
38530;BME280;24301;54.332;48.386;2023-05-08T00:34:02;100048.56;;;2.22;48.75
38530;BME280;24301;54.332;48.386;2023-05-08T00:36:28;100052.91;;;2.23;48.26
38530;BME280;24301;54.332;48.386;2023-05-08T00:38:54;100059.06;;;2.25;49.11
38530;BME280;24301;54.332;48.386;2023-05-08T00:41:20;100051.25;;;2.25;48.35
38530;BME280;24301;54.332;48.386;2023-05-08T00:43:46;100049.59;;;2.27;48.99
38530;BME280;24301;54.332;48.386;2023-05-08T00:49:00;100063.31;;;2.23;49.33
38530;BME280;24301;54.332;48.386;2023-05-08T00:51:26;100055.44;;;2.22;49.17
38530;BME280;24301;54.332;48.386;2023-05-08T00:53:53;100052.91;;;2.23;48.52
38530;BME280;24301;54.332;48.386;2023-05-08T00:56:20;100056.38;;;2.24;48.62
38530;BME280;24301;54.332;48.386;2023-05-08T00:58:47;100056.34;;;2.22;49.26
38530;BME280;24301;54.332;48.386;2023-05-08T01:01:13;100059.09;;;2.27;48.74
38530;BME280;24301;54.332;48.386;2023-05-08T01:03:41;100058.31;;;2.29;48.90
38530;BME280;24301;54.332;48.386;2023-05-08T01:06:08;100058.44;;;2.33;48.55
38530;BME280;24301;54.332;48.386;2023-05-08T01:08:34;100057.56;;;2.32;48.98
38530;BME280;24301;54.332;48.386;2023-05-08T01:11:19;100062.06;;;2.38;49.08
38530;BME280;24301;54.332;48.386;2023-05-08T01:14:04;100051.19;;;2.48;48.75
38530;BME280;24301;54.332;48.386;2023-05-08T01:16:55;100066.44;;;2.89;48.60
38530;BME280;24301;54.332;48.386;2023-05-08T01:19:57;100062.53;;;3.02;48.03
38530;BME280;24301;54.332;48.386;2023-05-08T01:28:16;100067.94;;;3.08;47.98
38530;BME280;24301;54.332;48.386;2023-05-08T01:31:03;100065.09;;;3.55;47.69
38530;BME280;24301;54.332;48.386;2023-05-08T01:33:35;100060.91;;;3.90;47.08
38530;BME280;24301;54.332;48.386;2023-05-08T01:36:33;100063.41;;;4.48;46.32
38530;BME280;24301;54.332;48.386;2023-05-08T01:39:21;100068.88;;;4.91;45.75
38530;BME280;24301;54.332;48.386;2023-05-08T01:42:04;100070.13;;;5.42;44.82
38530;BME280;24301;54.332;48.386;2023-05-08T01:44:44;100066.81;;;5.87;44.30
38530;BME280;24301;54.332;48.386;2023-05-08T01:47:13;100071.47;;;6.01;43.96
38530;BME280;24301;54.332;48.386;2023-05-08T01:49:43;100073.47;;;6.13;43.51
38530;BME280;24301;54.332;48.386;2023-05-08T01:52:36;100078.84;;;6.65;42.22
38530;BME280;24301;54.332;48.386;2023-05-08T01:55:04;100073.38;;;6.99;42.09
38530;BME280;24301;54.332;48.386;2023-05-08T01:57:38;100078.28;;;7.34;41.24
38530;BME280;24301;54.332;48.386;2023-05-08T02:00:05;100076.31;;;7.78;40.94
38530;BME280;24301;54.332;48.386;2023-05-08T02:02:38;100093.53;;;8.23;41.01
38530;BME280;24301;54.332;48.386;2023-05-08T02:05:07;100091.53;;;8.77;39.75
38530;BME280;24301;54.332;48.386;2023-05-08T02:07:35;100085.09;;;9.36;38.80
38530;BME280;24301;54.332;48.386;2023-05-08T02:10:05;100089.75;;;9.82;37.71
38530;BME280;24301;54.332;48.386;2023-05-08T02:12:33;100086.50;;;10.29;36.89
38530;BME280;24301;54.332;48.386;2023-05-08T02:15:03;100097.22;;;10.76;35.94
38530;BME280;24301;54.332;48.386;2023-05-08T02:17:32;100101.66;;;11.27;35.84
38530;BME280;24301;54.332;48.386;2023-05-08T02:20:00;100103.38;;;11.84;34.80
38530;BME280;24301;54.332;48.386;2023-05-08T02:22:32;100101.56;;;11.92;33.67
38530;BME280;24301;54.332;48.386;2023-05-08T02:24:58;100111.25;;;12.01;33.74
38530;BME280;24301;54.332;48.386;2023-05-08T02:27:26;100111.19;;;12.18;33.07
38530;BME280;24301;54.332;48.386;2023-05-08T02:29:53;100116.34;;;12.54;32.58
38530;BME280;24301;54.332;48.386;2023-05-08T02:32:20;100126.66;;;13.02;32.14
38530;BME280;24301;54.332;48.386;2023-05-08T02:34:49;100121.00;;;13.55;31.10
38530;BME280;24301;54.332;48.386;2023-05-08T02:37:18;100129.19;;;14.17;30.45
38530;BME280;24301;54.332;48.386;2023-05-08T02:39:46;100135.91;;;14.45;29.94
38530;BME280;24301;54.332;48.386;2023-05-08T02:42:14;100131.69;;;14.99;29.24
38530;BME280;24301;54.332;48.386;2023-05-08T02:44:43;100140.47;;;15.02;28.58
38530;BME280;24301;54.332;48.386;2023-05-08T02:47:18;100137.81;;;15.04;28.08
38530;BME280;24301;54.332;48.386;2023-05-08T02:49:51;100144.50;;;15.28;28.22
38530;BME280;24301;54.332;48.386;2023-05-08T02:55:07;100139.13;;;16.76;27.49
38530;BME280;24301;54.332;48.386;2023-05-08T03:03:06;100157.41;;;18.98;25.00
38530;BME280;24301;54.332;48.386;2023-05-08T03:05:37;100166.72;;;19.13;24.45
38530;BME280;24301;54.332;48.386;2023-05-08T03:08:07;100164.66;;;19.50;24.19
38530;BME280;24301;54.332;48.386;2023-05-08T03:10:35;100164.88;;;19.98;23.96
38530;BME280;24301;54.332;48.386;2023-05-08T03:13:04;100170.53;;;20.63;23.39
38530;BME280;24301;54.332;48.386;2023-05-08T03:15:40;100172.88;;;21.18;22.32
38530;BME280;24301;54.332;48.386;2023-05-08T03:18:10;100179.88;;;21.67;21.77
38530;BME280;24301;54.332;48.386;2023-05-08T03:20:44;100179.59;;;22.35;21.46
38530;BME280;24301;54.332;48.386;2023-05-08T03:23:16;100181.97;;;23.02;20.52
38530;BME280;24301;54.332;48.386;2023-05-08T03:25:44;100182.72;;;23.25;20.56
38530;BME280;24301;54.332;48.386;2023-05-08T03:28:12;100185.50;;;23.41;20.00
38530;BME280;24301;54.332;48.386;2023-05-08T03:30:40;100191.38;;;23.67;19.87
38530;BME280;24301;54.332;48.386;2023-05-08T03:33:10;100194.28;;;24.17;19.27
38530;BME280;24301;54.332;48.386;2023-05-08T03:35:38;100196.69;;;24.39;18.97
38530;BME280;24301;54.332;48.386;2023-05-08T03:38:06;100205.31;;;24.95;18.51
38530;BME280;24301;54.332;48.386;2023-05-08T03:40:34;100200.88;;;25.43;18.05
38530;BME280;24301;54.332;48.386;2023-05-08T03:43:13;100205.56;;;25.71;18.01
38530;BME280;24301;54.332;48.386;2023-05-08T03:45:40;100210.22;;;25.83;17.57
38530;BME280;24301;54.332;48.386;2023-05-08T03:48:07;100215.88;;;26.09;17.03
38530;BME280;24301;54.332;48.386;2023-05-08T03:50:36;100210.88;;;26.48;17.00
38530;BME280;24301;54.332;48.386;2023-05-08T03:53:03;100212.50;;;26.80;16.78
38530;BME280;24301;54.332;48.386;2023-05-08T03:55:30;100214.63;;;27.04;16.33
38530;BME280;24301;54.332;48.386;2023-05-08T03:58:18;100223.84;;;27.14;15.78
38530;BME280;24301;54.332;48.386;2023-05-08T04:03:31;100226.59;;;27.00;15.70
38530;BME280;24301;54.332;48.386;2023-05-08T04:06:13;100223.31;;;26.94;15.27
38530;BME280;24301;54.332;48.386;2023-05-08T04:08:46;100222.25;;;27.11;15.10
38530;BME280;24301;54.332;48.386;2023-05-08T04:11:25;100229.31;;;25.95;15.21
38530;BME280;24301;54.332;48.386;2023-05-08T04:14:02;100230.03;;;25.82;15.19
38530;BME280;24301;54.332;48.386;2023-05-08T04:16:33;100236.31;;;25.97;14.85
38530;BME280;24301;54.332;48.386;2023-05-08T04:19:14;100237.88;;;26.18;15.11
38530;BME280;24301;54.332;48.386;2023-05-08T04:21:43;100222.63;;;26.62;14.81
38530;BME280;24301;54.332;48.386;2023-05-08T04:24:12;100223.56;;;26.75;14.08
38530;BME280;24301;54.332;48.386;2023-05-08T04:26:43;100227.50;;;26.26;14.59
38530;BME280;24301;54.332;48.386;2023-05-08T04:29:09;100229.78;;;26.18;14.50
38530;BME280;24301;54.332;48.386;2023-05-08T04:31:36;100228.31;;;27.01;14.00
38530;BME280;24301;54.332;48.386;2023-05-08T04:34:02;100241.13;;;28.21;13.37
38530;BME280;24301;54.332;48.386;2023-05-08T04:36:32;100236.50;;;29.01;12.82
38530;BME280;24301;54.332;48.386;2023-05-08T04:39:01;100235.94;;;29.09;12.77
38530;BME280;24301;54.332;48.386;2023-05-08T04:41:32;100230.66;;;27.76;12.89
38530;BME280;24301;54.332;48.386;2023-05-08T04:44:04;100231.50;;;26.78;13.53
38530;BME280;24301;54.332;48.386;2023-05-08T04:46:31;100224.78;;;27.70;13.84
38530;BME280;24301;54.332;48.386;2023-05-08T04:49:07;100233.81;;;28.62;12.97
38530;BME280;24301;54.332;48.386;2023-05-08T04:51:37;100224.09;;;28.34;12.54
38530;BME280;24301;54.332;48.386;2023-05-08T04:54:03;100226.75;;;27.80;13.12
38530;BME280;24301;54.332;48.386;2023-05-08T04:56:32;100235.66;;;28.23;12.95
38530;BME280;24301;54.332;48.386;2023-05-08T04:58:59;100237.69;;;28.71;12.64
38530;BME280;24301;54.332;48.386;2023-05-08T05:01:25;100239.19;;;29.01;12.33
38530;BME280;24301;54.332;48.386;2023-05-08T05:03:52;100227.00;;;27.35;12.58
38530;BME280;24301;54.332;48.386;2023-05-08T05:06:21;100243.00;;;27.66;13.14
38530;BME280;24301;54.332;48.386;2023-05-08T05:08:47;100230.66;;;26.92;13.57
38530;BME280;24301;54.332;48.386;2023-05-08T05:11:14;100235.19;;;27.34;13.34
38530;BME280;24301;54.332;48.386;2023-05-08T05:13:42;100232.34;;;27.64;13.27
38530;BME280;24301;54.332;48.386;2023-05-08T05:16:08;100228.19;;;27.59;12.92
38530;BME280;24301;54.332;48.386;2023-05-08T05:18:34;100231.69;;;26.16;13.71
38530;BME280;24301;54.332;48.386;2023-05-08T05:20:59;100219.16;;;24.03;14.76
38530;BME280;24301;54.332;48.386;2023-05-08T05:23:28;100221.56;;;23.53;14.96
38530;BME280;24301;54.332;48.386;2023-05-08T05:25:54;100224.94;;;23.39;15.13
38530;BME280;24301;54.332;48.386;2023-05-08T05:28:20;100234.88;;;22.78;15.76
38530;BME280;24301;54.332;48.386;2023-05-08T05:30:46;100229.69;;;23.51;15.52
38530;BME280;24301;54.332;48.386;2023-05-08T05:33:13;100231.25;;;25.13;14.73
38530;BME280;24301;54.332;48.386;2023-05-08T05:35:39;100246.44;;;26.08;13.96
38530;BME280;24301;54.332;48.386;2023-05-08T05:38:05;100241.94;;;26.39;13.17
38530;BME280;24301;54.332;48.386;2023-05-08T05:40:31;100241.53;;;26.31;13.10
38530;BME280;24301;54.332;48.386;2023-05-08T05:42:57;100240.03;;;27.29;13.34
38530;BME280;24301;54.332;48.386;2023-05-08T05:45:24;100234.38;;;26.61;13.35
38530;BME280;24301;54.332;48.386;2023-05-08T05:47:51;100238.06;;;26.29;13.44
38530;BME280;24301;54.332;48.386;2023-05-08T05:50:20;100237.38;;;26.85;13.53
38530;BME280;24301;54.332;48.386;2023-05-08T05:52:49;100248.22;;;26.83;13.68
38530;BME280;24301;54.332;48.386;2023-05-08T05:55:16;100245.06;;;27.20;13.18
38530;BME280;24301;54.332;48.386;2023-05-08T05:57:43;100237.16;;;26.88;12.97
38530;BME280;24301;54.332;48.386;2023-05-08T06:00:09;100238.59;;;26.65;13.18
38530;BME280;24301;54.332;48.386;2023-05-08T06:02:49;100243.06;;;25.26;13.95
38530;BME280;24301;54.332;48.386;2023-05-08T06:05:16;100240.84;;;25.50;13.61
38530;BME280;24301;54.332;48.386;2023-05-08T06:07:44;100243.16;;;26.93;13.27
38530;BME280;24301;54.332;48.386;2023-05-08T06:10:10;100238.69;;;28.04;12.93
38530;BME280;24301;54.332;48.386;2023-05-08T06:12:36;100238.53;;;29.23;12.30
38530;BME280;24301;54.332;48.386;2023-05-08T06:15:03;100255.19;;;26.88;12.84
38530;BME280;24301;54.332;48.386;2023-05-08T06:17:58;100240.28;;;26.96;12.37
38530;BME280;24301;54.332;48.386;2023-05-08T06:20:24;100244.34;;;26.30;12.93
38530;BME280;24301;54.332;48.386;2023-05-08T06:22:51;100224.66;;;24.17;14.08
38530;BME280;24301;54.332;48.386;2023-05-08T06:25:16;100238.84;;;24.37;14.28
38530;BME280;24301;54.332;48.386;2023-05-08T06:27:44;100231.94;;;25.00;13.82
38530;BME280;24301;54.332;48.386;2023-05-08T06:30:11;100230.06;;;25.66;13.22
38530;BME280;24301;54.332;48.386;2023-05-08T06:32:46;100234.44;;;26.14;12.94
38530;BME280;24301;54.332;48.386;2023-05-08T06:35:13;100220.56;;;24.95;13.36
38530;BME280;24301;54.332;48.386;2023-05-08T06:37:44;100233.19;;;24.77;13.47
38530;BME280;24301;54.332;48.386;2023-05-08T06:40:17;100233.28;;;25.41;13.52
38530;BME280;24301;54.332;48.386;2023-05-08T06:42:55;100219.81;;;25.73;13.23
38530;BME280;24301;54.332;48.386;2023-05-08T06:45:21;100233.03;;;24.29;14.19
